Yasa Emirhan — V7OC3 — position and weather

sailwx.info

Track history (hours):
 
Tides and Currents Weather Stations Pressure Air Temp Water Temp Dewpoint Dewpoint Depression Visibility Wind Speed Wind Dir Waves Ship Positions

Yasa Emirhan

Last reported at 2018-Jun-25 16:40 UTC. Time now 2018-Jun-25 17:49 UTC.
Position N 36°43' E 005°11'.

Length 190 m; draft 10.6 m.

Type: Cargo ship. MMSI: 538003057.

Date/timePositionNaut miles runAvg speedWind from/ knotsBaromVisibWave heightAir tempDewpointWater temp
2018-Jun-25 16:40N 36°43' E 005°11'6 0.5
2018-Jun-25 03:42N 36°49' E 005°08'1111.0
2018-Jun-25 02:44N 36°56' E 004°58'310.5
2018-Jun-25 02:26N 36°58' E 004°55'4311.0
2018-Jun-24 22:30N 37°08' E 004°02'1010.7
2018-Jun-24 21:33N 37°08' E 003°49'011.0
2018-Jun-24 21:30N 37°08' E 003°48'510.8
2018-Jun-24 21:00N 37°07' E 003°42'510.5
2018-Jun-24 20:30N 37°06' E 003°35'510.2
2018-Jun-24 20:00N 37°05' E 003°29'5 9.9
2018-Jun-24 19:30N 37°04' E 003°23'5 9.8
2018-Jun-24 18:59N 37°04' E 003°17'510.1
2018-Jun-24 18:30N 37°03' E 003°11'510.6
2018-Jun-24 18:00N 37°02' E 003°04'510.8
2018-Jun-24 17:30N 37°01' E 002°57'611.1
2018-Jun-24 17:00N 37°00' E 002°50'611.1
2018-Jun-24 16:30N 36°59' E 002°44'511.0
2018-Jun-24 16:00N 36°58' E 002°37'510.9
2018-Jun-24 15:30N 36°58' E 002°30'510.8
2018-Jun-24 15:00N 36°57' E 002°23'510.7
2018-Jun-24 14:30N 36°56' E 002°17'510.8
2018-Jun-24 14:00N 36°55' E 002°10'611.2
2018-Jun-24 13:29N 36°54' E 002°03'511.3
2018-Jun-24 13:00N 36°53' E 001°56'611.3
2018-Jun-24 12:30N 36°52' E 001°49'611.5
2018-Jun-24 11:59N 36°51' E 001°42'711.4
2018-Jun-24 11:23N 36°50' E 001°34'511.2
2018-Jun-24 10:57N 36°50' E 001°27'3011.3
2018-Jun-24 08:18N 36°45' E 000°51'911.0
2018-Jun-24 07:29N 36°43' E 000°40'511.0
2018-Jun-24 07:00N 36°42' E 000°33'510.9
2018-Jun-24 06:30N 36°41' E 000°27'610.9
2018-Jun-24 06:00N 36°40' E 000°20'611.0
2018-Jun-24 05:27N 36°39' E 000°12'3811.0
2018-Jun-24 01:59N 36°34' W 000°35'510.5
2018-Jun-24 01:30N 36°33' W 000°41'510.7
2018-Jun-24 01:00N 36°32' W 000°47'610.8
2018-Jun-24 00:29N 36°31' W 000°54'511.0
2018-Jun-24 00:00N 36°30' W 001°01'711.0
2018-Jun-23 23:22N 36°29' W 001°09'511.3
2018-Jun-23 22:57N 36°29' W 001°15'  
2018-Jun-20 15:02N 30°25' W 011°24'112.1
2018-Jun-20 14:58N 30°25' W 011°25'5712.2
2018-Jun-20 10:18N 29°39' W 012°05'612.3
2018-Jun-20 09:48N 29°35' W 012°09'512.2
2018-Jun-20 09:22N 29°30' W 012°13'4812.1
2018-Jun-20 05:24N 28°53' W 012°47'512.1
2018-Jun-20 04:57N 28°48' W 012°51'612.2
2018-Jun-20 04:28N 28°44' W 012°55'612.6
2018-Jun-20 04:00N 28°39' W 012°59'712.7
2018-Jun-20 03:28N 28°34' W 013°04'612.6
2018-Jun-20 03:00N 28°29' W 013°08'612.6
2018-Jun-20 02:30N 28°24' W 013°12'612.6
2018-Jun-20 02:00N 28°19' W 013°17'612.4
2018-Jun-20 01:30N 28°14' W 013°21'612.2
2018-Jun-20 01:00N 28°09' W 013°25'612.1
2018-Jun-20 00:29N 28°05' W 013°30'612.2
2018-Jun-19 23:59N 27°60' W 013°34'612.1
2018-Jun-19 23:29N 27°55' W 013°38'612.2
2018-Jun-19 23:00N 27°51' W 013°42'612.0
2018-Jun-19 22:29N 27°46' W 013°46'1312.4
2018-Jun-19 21:27N 27°35' W 013°55'612.3
2018-Jun-19 20:58N 27°31' W 013°59'712.2
2018-Jun-19 20:22N 27°25' W 014°04'712.1
2018-Jun-19 19:49N 27°19' W 014°09'611.8
2018-Jun-19 19:18N 27°15' W 014°13'512.0
2018-Jun-19 18:51N 27°10' W 014°16'412.3
2018-Jun-19 18:30N 27°07' W 014°19'  
Track history (hours):
 
Tides and Currents Weather Stations Pressure Air Temp Water Temp Dewpoint Dewpoint Depression Visibility Wind Speed Wind Dir Waves Ship Positions

Yasa Emirhan

Last reported at 2018-Jun-25 16:40 UTC. Time now 2018-Jun-25 17:49 UTC.
Position N 36°43' E 005°11'.

Length 190 m; draft 10.6 m.

Type: Cargo ship. MMSI: 538003057.

Date/timePositionNaut miles runAvg speedWind from/ knotsBaromVisibWave heightAir tempDewpointWater temp
2018-Jun-25 16:40N 36°43' E 005°11'6 0.5
2018-Jun-25 03:42N 36°49' E 005°08'1111.0
2018-Jun-25 02:44N 36°56' E 004°58'310.5
2018-Jun-25 02:26N 36°58' E 004°55'4311.0
2018-Jun-24 22:30N 37°08' E 004°02'1010.7
2018-Jun-24 21:33N 37°08' E 003°49'011.0
2018-Jun-24 21:30N 37°08' E 003°48'510.8
2018-Jun-24 21:00N 37°07' E 003°42'510.5
2018-Jun-24 20:30N 37°06' E 003°35'510.2
2018-Jun-24 20:00N 37°05' E 003°29'5 9.9
2018-Jun-24 19:30N 37°04' E 003°23'5 9.8
2018-Jun-24 18:59N 37°04' E 003°17'510.1
2018-Jun-24 18:30N 37°03' E 003°11'510.6
2018-Jun-24 18:00N 37°02' E 003°04'510.8
2018-Jun-24 17:30N 37°01' E 002°57'611.1
2018-Jun-24 17:00N 37°00' E 002°50'611.1
2018-Jun-24 16:30N 36°59' E 002°44'511.0
2018-Jun-24 16:00N 36°58' E 002°37'510.9
2018-Jun-24 15:30N 36°58' E 002°30'510.8
2018-Jun-24 15:00N 36°57' E 002°23'510.7
2018-Jun-24 14:30N 36°56' E 002°17'510.8
2018-Jun-24 14:00N 36°55' E 002°10'611.2
2018-Jun-24 13:29N 36°54' E 002°03'511.3
2018-Jun-24 13:00N 36°53' E 001°56'611.3
2018-Jun-24 12:30N 36°52' E 001°49'611.5
2018-Jun-24 11:59N 36°51' E 001°42'711.4
2018-Jun-24 11:23N 36°50' E 001°34'511.2
2018-Jun-24 10:57N 36°50' E 001°27'3011.3
2018-Jun-24 08:18N 36°45' E 000°51'911.0
2018-Jun-24 07:29N 36°43' E 000°40'511.0
2018-Jun-24 07:00N 36°42' E 000°33'510.9
2018-Jun-24 06:30N 36°41' E 000°27'610.9
2018-Jun-24 06:00N 36°40' E 000°20'611.0
2018-Jun-24 05:27N 36°39' E 000°12'3811.0
2018-Jun-24 01:59N 36°34' W 000°35'510.5
2018-Jun-24 01:30N 36°33' W 000°41'510.7
2018-Jun-24 01:00N 36°32' W 000°47'610.8
2018-Jun-24 00:29N 36°31' W 000°54'511.0
2018-Jun-24 00:00N 36°30' W 001°01'711.0
2018-Jun-23 23:22N 36°29' W 001°09'511.3
2018-Jun-23 22:57N 36°29' W 001°15'  
2018-Jun-20 15:02N 30°25' W 011°24'112.1
2018-Jun-20 14:58N 30°25' W 011°25'5712.2
2018-Jun-20 10:18N 29°39' W 012°05'612.3
2018-Jun-20 09:48N 29°35' W 012°09'512.2
2018-Jun-20 09:22N 29°30' W 012°13'4812.1
2018-Jun-20 05:24N 28°53' W 012°47'512.1
2018-Jun-20 04:57N 28°48' W 012°51'612.2
2018-Jun-20 04:28N 28°44' W 012°55'612.6
2018-Jun-20 04:00N 28°39' W 012°59'712.7
2018-Jun-20 03:28N 28°34' W 013°04'612.6
2018-Jun-20 03:00N 28°29' W 013°08'612.6
2018-Jun-20 02:30N 28°24' W 013°12'612.6
2018-Jun-20 02:00N 28°19' W 013°17'612.4
2018-Jun-20 01:30N 28°14' W 013°21'612.2
2018-Jun-20 01:00N 28°09' W 013°25'612.1
2018-Jun-20 00:29N 28°05' W 013°30'612.2
2018-Jun-19 23:59N 27°60' W 013°34'612.1
2018-Jun-19 23:29N 27°55' W 013°38'612.2
2018-Jun-19 23:00N 27°51' W 013°42'612.0
2018-Jun-19 22:29N 27°46' W 013°46'1312.4
2018-Jun-19 21:27N 27°35' W 013°55'612.3
2018-Jun-19 20:58N 27°31' W 013°59'712.2
2018-Jun-19 20:22N 27°25' W 014°04'712.1
2018-Jun-19 19:49N 27°19' W 014°09'611.8
2018-Jun-19 19:18N 27°15' W 014°13'512.0
2018-Jun-19 18:51N 27°10' W 014°16'412.3
2018-Jun-19 18:30N 27°07' W 014°19'  

Dump ship's entire track history